createdAt,value
2023-05-05T00:02:36.238Z,94.80
2023-05-05T00:05:21.745Z,94.80
2023-05-05T00:08:07.729Z,94.80
2023-05-05T00:10:53.332Z,95.40
2023-05-05T00:13:39.021Z,95.00
2023-05-05T00:16:24.622Z,95.60
2023-05-05T00:19:10.360Z,95.30
2023-05-05T00:21:56.528Z,95.70
2023-05-05T00:24:42.149Z,95.30
2023-05-05T00:27:27.779Z,95.50
2023-05-05T00:30:13.773Z,96.00
2023-05-05T00:32:59.494Z,95.80
2023-05-05T00:35:45.042Z,96.20
2023-05-05T00:38:30.574Z,96.00
2023-05-05T00:41:16.186Z,95.90
2023-05-05T00:44:01.723Z,96.70
2023-05-05T00:46:47.575Z,96.80
2023-05-05T00:49:33.583Z,96.80
2023-05-05T00:52:18.936Z,96.80
2023-05-05T00:55:05.241Z,96.60
2023-05-05T00:57:50.832Z,96.50
2023-05-05T01:00:36.196Z,97.10
2023-05-05T01:03:22.074Z,97.00
2023-05-05T01:06:26.228Z,97.40
2023-05-05T01:09:31.197Z,97.40
2023-05-05T01:12:39.821Z,97.10
2023-05-05T01:15:36.113Z,96.70
2023-05-05T01:18:28.478Z,96.40
2023-05-05T01:21:19.397Z,97.00
2023-05-05T01:24:23.199Z,97.10
2023-05-05T01:27:27.547Z,97.20
2023-05-05T01:30:32.033Z,97.50
2023-05-05T01:33:20.233Z,97.30
2023-05-05T01:36:11.960Z,97.50
2023-05-05T01:38:59.229Z,97.30
2023-05-05T01:41:49.130Z,97.80
2023-05-05T01:44:36.388Z,97.90
2023-05-05T01:47:22.736Z,97.60
2023-05-05T01:50:09.138Z,97.80
2023-05-05T01:52:56.584Z,98.00
2023-05-05T01:55:42.814Z,98.20
2023-05-05T01:58:29.133Z,98.70
2023-05-05T02:01:15.007Z,97.80
2023-05-05T02:04:01.880Z,98.10
2023-05-05T02:06:50.438Z,97.90
2023-05-05T02:09:36.325Z,97.90
2023-05-05T02:12:22.630Z,98.40
2023-05-05T02:15:08.926Z,97.80
2023-05-05T02:17:55.079Z,98.50
2023-05-05T02:20:41.346Z,98.50
2023-05-05T02:23:26.825Z,99.20
2023-05-05T02:26:13.965Z,98.50
2023-05-05T02:29:07.698Z,98.30
2023-05-05T02:31:53.812Z,99.20
2023-05-05T02:34:46.243Z,99.20
2023-05-05T02:37:35.689Z,98.70
2023-05-05T02:40:24.362Z,99.20
2023-05-05T02:43:15.584Z,99.70
2023-05-05T02:46:01.515Z,99.40
2023-05-05T02:48:48.351Z,99.60
2023-05-05T02:51:33.933Z,99.90
2023-05-05T02:54:23.018Z,99.90
2023-05-05T02:57:11.213Z,99.90
2023-05-05T02:59:58.725Z,99.90
2023-05-05T03:03:14.104Z,99.90
2023-05-05T03:06:04.330Z,99.90
2023-05-05T03:08:50.003Z,99.90
2023-05-05T03:11:38.501Z,99.90
2023-05-05T03:14:27.284Z,99.90
2023-05-05T03:17:13.465Z,99.90
2023-05-05T03:20:00.530Z,99.90
2023-05-05T03:22:49.532Z,99.90
2023-05-05T03:25:41.550Z,99.90
2023-05-05T03:28:28.136Z,99.90
2023-05-05T03:31:15.788Z,99.90
2023-05-05T03:34:01.672Z,99.90
2023-05-05T03:36:52.829Z,99.90
2023-05-05T03:39:38.577Z,99.90
2023-05-05T03:42:25.230Z,99.90
2023-05-05T03:45:11.394Z,99.90
2023-05-05T03:47:58.280Z,99.90
2023-05-05T03:50:48.330Z,99.90
2023-05-05T03:53:36.191Z,99.90
2023-05-05T03:56:24.690Z,99.90
2023-05-05T03:59:10.973Z,99.90
2023-05-05T04:01:56.865Z,99.90
2023-05-05T04:04:42.872Z,99.90
2023-05-05T04:07:28.330Z,99.90
2023-05-05T04:10:13.814Z,99.90
2023-05-05T04:12:59.676Z,99.90
2023-05-05T04:15:47.085Z,99.90
2023-05-05T04:18:33.871Z,99.90
2023-05-05T04:21:19.631Z,99.90
2023-05-05T04:24:06.231Z,99.90
2023-05-05T04:26:52.232Z,99.90
2023-05-05T04:29:38.761Z,99.90
2023-05-05T04:32:24.445Z,99.90
2023-05-05T04:35:10.550Z,99.90
2023-05-05T04:37:56.211Z,99.90
2023-05-05T04:40:41.725Z,99.90
2023-05-05T04:43:28.851Z,99.90
2023-05-05T04:46:14.676Z,99.90
2023-05-05T04:49:00.766Z,99.90
2023-05-05T04:51:46.781Z,99.90
2023-05-05T04:54:35.030Z,99.90
2023-05-05T04:57:20.624Z,99.90
2023-05-05T05:00:07.973Z,99.90
2023-05-05T05:02:53.416Z,99.90
2023-05-05T05:05:39.176Z,99.90
2023-05-05T05:08:24.898Z,99.90
2023-05-05T05:11:10.691Z,99.90
2023-05-05T05:13:56.088Z,99.90
2023-05-05T05:16:41.518Z,99.90
2023-05-05T05:19:27.100Z,99.90
2023-05-05T05:22:12.820Z,99.90
2023-05-05T05:24:59.870Z,99.90
2023-05-05T05:27:46.804Z,99.90
2023-05-05T05:30:37.125Z,99.90
2023-05-05T05:33:24.546Z,99.90
2023-05-05T05:36:11.317Z,99.90
2023-05-05T05:38:56.950Z,99.90
2023-05-05T05:41:42.809Z,99.90
2023-05-05T05:44:28.405Z,99.90
2023-05-05T05:47:15.698Z,99.90
2023-05-05T05:50:01.427Z,99.90
2023-05-05T05:52:47.301Z,99.90
2023-05-05T05:55:32.762Z,99.90
2023-05-05T05:58:18.745Z,99.90
2023-05-05T06:01:05.229Z,99.90
2023-05-05T06:03:51.312Z,99.90
2023-05-05T06:06:37.381Z,99.90
2023-05-05T06:09:23.592Z,99.90
2023-05-05T06:12:09.278Z,99.90
2023-05-05T06:14:54.927Z,99.90
2023-05-05T06:17:40.757Z,99.90
2023-05-05T06:20:26.298Z,99.90
2023-05-05T06:23:11.833Z,99.90
2023-05-05T06:26:01.554Z,99.90
2023-05-05T06:28:47.042Z,99.90
2023-05-05T06:31:32.776Z,99.90
2023-05-05T06:34:18.367Z,99.90
2023-05-05T06:37:04.026Z,99.90
2023-05-05T06:39:49.727Z,99.90
2023-05-05T06:42:35.976Z,99.90
2023-05-05T06:45:23.341Z,99.90
2023-05-05T06:48:09.232Z,99.90
2023-05-05T06:50:55.940Z,99.90
2023-05-05T06:53:41.620Z,99.90
2023-05-05T06:56:27.811Z,99.90
2023-05-05T06:59:13.529Z,99.90
2023-05-05T07:01:59.348Z,99.90
2023-05-05T07:04:44.920Z,99.90
2023-05-05T07:07:31.752Z,99.90
2023-05-05T07:10:17.457Z,99.90
2023-05-05T07:13:02.870Z,99.90
2023-05-05T07:15:49.393Z,99.90
2023-05-05T07:18:35.013Z,99.90
2023-05-05T07:21:20.433Z,99.90
2023-05-05T07:24:06.218Z,99.90
2023-05-05T07:26:51.666Z,99.90
2023-05-05T07:29:37.536Z,99.90
2023-05-05T07:32:23.191Z,99.90
2023-05-05T07:35:08.935Z,99.90
2023-05-05T07:37:54.418Z,99.90
2023-05-05T07:40:39.911Z,99.90
2023-05-05T07:43:25.734Z,99.90
2023-05-05T07:46:11.370Z,99.90
2023-05-05T07:48:57.247Z,99.90
2023-05-05T07:51:42.894Z,99.90
2023-05-05T07:54:29.003Z,99.90
2023-05-05T07:57:14.844Z,99.90
2023-05-05T08:00:00.359Z,99.90
2023-05-05T08:02:46.438Z,99.90
2023-05-05T08:05:32.118Z,99.90
2023-05-05T08:08:17.539Z,99.90
2023-05-05T08:11:03.496Z,99.90
2023-05-05T08:13:49.222Z,99.90
2023-05-05T08:16:34.973Z,99.90
2023-05-05T08:19:28.570Z,99.90
2023-05-05T08:22:15.784Z,99.90
2023-05-05T08:25:02.102Z,99.90
2023-05-05T08:27:47.736Z,99.90
2023-05-05T08:30:33.482Z,99.90
2023-05-05T08:33:19.353Z,99.90
2023-05-05T08:36:05.433Z,99.90
2023-05-05T08:38:51.192Z,99.90
2023-05-05T08:41:36.497Z,99.90
2023-05-05T08:44:22.263Z,99.90
2023-05-05T08:47:10.199Z,99.90
2023-05-05T08:49:55.978Z,99.90
2023-05-05T08:52:44.317Z,99.90
2023-05-05T08:55:33.389Z,99.90
2023-05-05T08:58:19.299Z,99.90
2023-05-05T09:01:05.812Z,99.90
2023-05-05T09:03:52.643Z,99.90
2023-05-05T09:06:38.356Z,99.90
2023-05-05T09:09:24.148Z,99.90
2023-05-05T09:12:09.682Z,99.90
2023-05-05T09:14:55.838Z,99.90
2023-05-05T09:17:43.233Z,99.90
2023-05-05T09:20:36.188Z,99.90
2023-05-05T09:23:21.819Z,99.90
2023-05-05T09:26:08.989Z,99.90
2023-05-05T09:28:54.816Z,99.90
2023-05-05T09:31:40.487Z,99.90
2023-05-05T09:34:25.874Z,99.90
2023-05-05T09:37:11.564Z,99.90
2023-05-05T09:39:58.780Z,99.90
2023-05-05T09:42:44.911Z,99.90
2023-05-05T09:45:30.664Z,99.90
2023-05-05T09:48:25.820Z,99.90
2023-05-05T09:51:11.477Z,99.90
2023-05-05T09:53:57.254Z,99.90
2023-05-05T09:56:42.758Z,99.90
2023-05-05T09:59:28.392Z,99.90
2023-05-05T10:02:13.939Z,99.90
2023-05-05T10:05:12.734Z,99.90
2023-05-05T10:08:12.458Z,99.90
2023-05-05T10:11:04.587Z,99.90
2023-05-05T10:13:50.032Z,99.90
2023-05-05T10:16:35.805Z,99.90
2023-05-05T10:19:22.289Z,99.90
2023-05-05T10:22:08.427Z,99.90
2023-05-05T10:25:03.156Z,99.90
2023-05-05T10:27:54.721Z,99.90
2023-05-05T10:30:43.236Z,99.90
2023-05-05T10:33:37.809Z,99.90
2023-05-05T10:36:24.915Z,99.90
2023-05-05T10:39:11.907Z,99.90
2023-05-05T10:42:01.866Z,99.90
2023-05-05T10:44:49.101Z,99.90
2023-05-05T10:47:35.931Z,99.90
2023-05-05T10:50:29.600Z,99.90
2023-05-05T10:53:27.955Z,99.90
2023-05-05T10:56:13.227Z,99.90
2023-05-05T10:59:00.577Z,99.90
2023-05-05T11:01:46.424Z,99.90
2023-05-05T11:04:31.722Z,99.70
2023-05-05T11:07:24.273Z,99.40
2023-05-05T11:10:11.014Z,99.20
2023-05-05T11:13:02.925Z,98.90
2023-05-05T11:15:51.994Z,98.70
2023-05-05T11:18:37.673Z,98.60
2023-05-05T11:21:24.426Z,98.30
2023-05-05T11:24:27.453Z,98.30
2023-05-05T11:27:12.782Z,98.20
2023-05-05T11:30:05.778Z,98.10
2023-05-05T11:33:09.910Z,98.10
2023-05-05T11:35:56.518Z,98.00
2023-05-05T11:38:42.252Z,98.00
2023-05-05T11:41:27.864Z,97.80
2023-05-05T11:44:17.972Z,97.70
2023-05-05T11:47:06.583Z,97.60
2023-05-05T11:49:52.117Z,97.60
2023-05-05T11:52:37.778Z,97.50
2023-05-05T11:55:23.454Z,97.60
2023-05-05T11:58:18.827Z,97.60
2023-05-05T12:01:07.762Z,97.50
2023-05-05T12:03:53.678Z,97.40
2023-05-05T12:06:39.459Z,97.50
2023-05-05T12:09:25.316Z,97.50
2023-05-05T12:12:10.858Z,97.50
2023-05-05T12:14:56.196Z,97.40
2023-05-05T12:17:44.925Z,97.20
2023-05-05T12:20:32.279Z,97.00
2023-05-05T12:23:17.805Z,96.90
2023-05-05T12:26:03.500Z,96.60
2023-05-05T12:28:49.220Z,96.50
2023-05-05T12:31:38.624Z,96.40
2023-05-05T12:34:24.491Z,96.50
2023-05-05T12:37:10.586Z,96.10
2023-05-05T12:39:56.366Z,96.00
2023-05-05T12:42:42.433Z,95.80
2023-05-05T12:45:29.098Z,95.60
2023-05-05T12:48:21.238Z,95.60
2023-05-05T12:51:33.226Z,95.50
2023-05-05T12:54:18.703Z,95.50
2023-05-05T12:57:10.999Z,95.50
2023-05-05T12:59:56.637Z,95.50
2023-05-05T13:02:42.227Z,95.50
2023-05-05T13:05:32.649Z,95.50
2023-05-05T13:08:18.621Z,95.50
2023-05-05T13:11:03.837Z,95.50
2023-05-05T13:13:49.613Z,95.50
2023-05-05T13:16:35.111Z,95.40
2023-05-05T13:19:20.678Z,95.40
2023-05-05T13:22:06.305Z,95.20
2023-05-05T13:24:52.922Z,95.20
2023-05-05T13:27:38.456Z,95.10
2023-05-05T13:30:24.137Z,95.10
2023-05-05T13:33:09.905Z,95.10
2023-05-05T13:35:55.917Z,95.10
2023-05-05T13:38:41.657Z,95.10
2023-05-05T13:41:27.806Z,95.10
2023-05-05T13:44:14.018Z,95.00
2023-05-05T13:46:59.967Z,95.10
2023-05-05T13:49:45.674Z,95.00
2023-05-05T13:52:32.107Z,95.10
2023-05-05T13:55:19.062Z,95.10
2023-05-05T13:58:04.889Z,95.10
2023-05-05T14:00:50.701Z,95.20
2023-05-05T14:03:36.118Z,95.20
2023-05-05T14:06:21.570Z,95.20
2023-05-05T14:09:08.008Z,95.20
2023-05-05T14:11:53.568Z,95.20
2023-05-05T14:14:39.189Z,95.30
2023-05-05T14:17:25.154Z,95.30
2023-05-05T14:20:11.005Z,95.60
2023-05-05T14:22:56.444Z,95.30
2023-05-05T14:25:41.945Z,95.40
2023-05-05T14:28:27.519Z,95.30
2023-05-05T14:31:13.349Z,95.40
2023-05-05T14:33:59.055Z,95.40
2023-05-05T14:36:44.636Z,96.90
2023-05-05T14:39:31.073Z,97.20
2023-05-05T14:42:16.476Z,97.00
2023-05-05T14:45:03.655Z,96.90
2023-05-05T14:47:49.560Z,97.50
2023-05-05T14:50:34.928Z,99.90
2023-05-05T14:53:20.651Z,99.90
2023-05-05T14:56:06.714Z,99.90
2023-05-05T14:58:52.675Z,99.90
2023-05-05T15:01:38.357Z,99.90
2023-05-05T15:04:23.862Z,99.90
2023-05-05T15:07:09.521Z,99.90
2023-05-05T15:09:56.536Z,99.90
2023-05-05T15:12:42.864Z,99.90
2023-05-05T15:15:28.981Z,99.90
2023-05-05T15:18:14.539Z,99.90
2023-05-05T15:21:00.182Z,99.90
2023-05-05T15:23:45.902Z,99.90
2023-05-05T15:26:31.919Z,99.90
2023-05-05T15:29:17.582Z,99.90
2023-05-05T15:32:03.194Z,99.90
2023-05-05T15:34:50.402Z,99.90
2023-05-05T15:37:36.494Z,99.90
2023-05-05T15:40:22.247Z,99.90
2023-05-05T15:43:08.014Z,99.90
2023-05-05T15:45:53.892Z,99.90
2023-05-05T15:48:39.457Z,99.90
2023-05-05T15:51:25.138Z,99.90
2023-05-05T15:54:10.711Z,99.90
2023-05-05T15:56:56.454Z,99.90
2023-05-05T15:59:42.211Z,99.90
2023-05-05T16:02:27.545Z,99.90
2023-05-05T16:05:13.497Z,99.90
2023-05-05T16:07:58.841Z,99.90
2023-05-05T16:10:44.582Z,99.90
2023-05-05T16:13:30.040Z,99.90
2023-05-05T16:16:15.634Z,99.90
2023-05-05T16:19:01.405Z,99.90
2023-05-05T16:21:47.040Z,99.90
2023-05-05T16:24:32.442Z,99.90
2023-05-05T16:27:18.312Z,99.90
2023-05-05T16:30:04.011Z,99.90
2023-05-05T16:32:51.754Z,99.90
2023-05-05T16:35:37.081Z,99.90
2023-05-05T16:38:22.597Z,99.90
2023-05-05T16:41:08.292Z,99.90
2023-05-05T16:43:53.748Z,99.90
2023-05-05T16:46:40.101Z,99.90
2023-05-05T16:49:26.019Z,99.90
2023-05-05T16:52:11.597Z,99.90
2023-05-05T16:54:57.424Z,99.90
2023-05-05T16:57:42.975Z,99.90
2023-05-05T17:00:28.732Z,99.90
2023-05-05T17:03:15.161Z,99.90
2023-05-05T17:06:00.647Z,99.90
2023-05-05T17:08:46.580Z,99.90
2023-05-05T17:11:32.119Z,99.90
2023-05-05T17:14:18.484Z,99.90
2023-05-05T17:17:04.089Z,99.90
2023-05-05T17:19:49.386Z,99.90
2023-05-05T17:22:35.044Z,99.90
2023-05-05T17:25:20.752Z,99.90
2023-05-05T17:28:07.441Z,99.90
2023-05-05T17:30:52.695Z,99.90
2023-05-05T17:33:38.291Z,99.90
2023-05-05T17:36:23.854Z,99.90
2023-05-05T17:39:11.374Z,99.90
2023-05-05T17:41:56.820Z,99.90
2023-05-05T17:44:42.504Z,99.90
2023-05-05T17:47:28.292Z,99.90
2023-05-05T17:50:13.853Z,99.90
2023-05-05T17:52:59.658Z,99.90
2023-05-05T17:55:45.954Z,99.90
2023-05-05T17:58:31.533Z,99.90
2023-05-05T18:01:21.386Z,99.90
2023-05-05T18:04:06.907Z,99.90
2023-05-05T18:06:55.772Z,99.90
2023-05-05T18:09:41.864Z,99.90
2023-05-05T18:12:27.493Z,99.90
2023-05-05T18:15:13.205Z,99.90
2023-05-05T18:17:58.717Z,99.90
2023-05-05T18:20:44.287Z,99.90
2023-05-05T18:23:29.871Z,99.90
2023-05-05T18:26:15.585Z,99.90
2023-05-05T18:29:01.145Z,99.90
2023-05-05T18:31:51.930Z,99.90
2023-05-05T18:34:37.889Z,99.90
2023-05-05T18:37:23.667Z,99.90
2023-05-05T18:40:10.487Z,99.90
2023-05-05T18:42:55.894Z,99.90
2023-05-05T18:45:41.953Z,99.90
2023-05-05T18:48:27.721Z,99.90
2023-05-05T18:51:13.283Z,99.90
2023-05-05T18:54:00.820Z,99.90
2023-05-05T18:56:46.630Z,99.90
2023-05-05T18:59:32.197Z,99.90
2023-05-05T19:02:17.955Z,99.90
2023-05-05T19:05:03.902Z,99.90
2023-05-05T19:07:49.511Z,99.90
2023-05-05T19:10:35.193Z,99.90
2023-05-05T19:13:20.713Z,99.90
2023-05-05T19:16:06.344Z,99.90
2023-05-05T19:18:51.692Z,99.90
2023-05-05T19:21:37.391Z,99.90
2023-05-05T19:24:23.014Z,99.90
2023-05-05T19:27:15.537Z,99.90
2023-05-05T19:30:02.407Z,99.90
2023-05-05T19:32:47.771Z,99.90
2023-05-05T19:35:33.439Z,99.90
2023-05-05T19:38:19.033Z,99.90
2023-05-05T19:41:04.433Z,99.90
2023-05-05T19:43:50.150Z,99.90
2023-05-05T19:46:35.590Z,99.90
2023-05-05T19:49:21.262Z,99.90
2023-05-05T19:52:06.840Z,99.90
2023-05-05T19:54:52.599Z,99.90
2023-05-05T19:57:38.374Z,99.90
2023-05-05T20:00:24.030Z,99.90
2023-05-05T20:03:09.867Z,99.90
2023-05-05T20:05:55.189Z,99.90
2023-05-05T20:08:40.809Z,99.90
2023-05-05T20:11:26.691Z,99.90
2023-05-05T20:14:12.087Z,99.90
2023-05-05T20:16:57.912Z,99.90
2023-05-05T20:19:43.333Z,99.90
2023-05-05T20:22:28.994Z,99.90
2023-05-05T20:25:16.250Z,99.90
2023-05-05T20:28:02.854Z,99.90
2023-05-05T20:30:48.407Z,99.90
2023-05-05T20:33:34.055Z,99.90
2023-05-05T20:36:19.725Z,99.90
2023-05-05T20:39:05.674Z,99.90
2023-05-05T20:41:56.566Z,99.90
2023-05-05T20:44:45.152Z,99.90
2023-05-05T20:47:34.022Z,99.90
2023-05-05T20:50:21.396Z,99.90
2023-05-05T20:53:16.882Z,99.90
2023-05-05T20:56:05.732Z,99.90
2023-05-05T20:58:51.746Z,99.90
2023-05-05T21:01:37.389Z,99.90
2023-05-05T21:04:23.189Z,99.90
2023-05-05T21:07:08.688Z,99.90
2023-05-05T21:09:54.171Z,99.90
2023-05-05T21:12:40.455Z,99.90
2023-05-05T21:15:26.073Z,99.90
2023-05-05T21:18:11.865Z,99.90
2023-05-05T21:20:57.470Z,99.90
2023-05-05T21:23:45.910Z,99.90
2023-05-05T21:26:31.412Z,99.90
2023-05-05T21:29:17.085Z,99.90
2023-05-05T21:32:09.722Z,99.90
2023-05-05T21:34:55.181Z,99.90
2023-05-05T21:37:40.904Z,99.90
2023-05-05T21:40:26.569Z,99.90
2023-05-05T21:43:12.185Z,99.90
2023-05-05T21:45:58.682Z,99.90
2023-05-05T21:48:46.204Z,99.90
2023-05-05T21:51:31.994Z,99.90
2023-05-05T21:54:17.358Z,99.90
2023-05-05T21:57:02.984Z,99.90
2023-05-05T21:59:48.664Z,99.90
2023-05-05T22:02:34.309Z,99.90
2023-05-05T22:05:19.954Z,99.90
2023-05-05T22:08:05.550Z,99.90
2023-05-05T22:10:51.450Z,99.90
2023-05-05T22:13:38.906Z,99.90
2023-05-05T22:16:24.220Z,99.90
2023-05-05T22:19:09.843Z,99.90
2023-05-05T22:21:55.349Z,99.90
2023-05-05T22:24:41.477Z,99.90
2023-05-05T22:27:27.205Z,99.90
2023-05-05T22:30:13.200Z,99.90
2023-05-05T22:32:58.868Z,99.90
2023-05-05T22:35:44.601Z,99.90
2023-05-05T22:38:29.821Z,99.90
2023-05-05T22:41:15.882Z,99.90
2023-05-05T22:44:01.314Z,99.90
2023-05-05T22:46:47.111Z,99.90
2023-05-05T22:49:32.719Z,99.90
2023-05-05T22:52:18.257Z,99.90
2023-05-05T22:55:04.066Z,99.90
2023-05-05T22:57:49.932Z,99.90
2023-05-05T23:00:35.758Z,99.90
2023-05-05T23:03:21.185Z,99.90
2023-05-05T23:06:06.991Z,99.90
2023-05-05T23:08:52.311Z,99.90
2023-05-05T23:11:37.905Z,99.90
2023-05-05T23:14:23.677Z,99.90
2023-05-05T23:17:09.503Z,99.90
2023-05-05T23:19:55.085Z,99.90
2023-05-05T23:22:41.191Z,99.90
2023-05-05T23:25:26.579Z,99.90
2023-05-05T23:28:12.293Z,99.90
2023-05-05T23:30:57.965Z,99.90
2023-05-05T23:33:43.387Z,99.90
2023-05-05T23:36:29.065Z,99.90
2023-05-05T23:39:14.619Z,99.90
2023-05-05T23:42:00.310Z,99.90
2023-05-05T23:44:45.904Z,99.90
2023-05-05T23:47:31.541Z,99.90
2023-05-05T23:50:17.077Z,99.90
2023-05-05T23:53:02.663Z,99.90
2023-05-05T23:55:48.102Z,99.90
2023-05-05T23:58:33.975Z,99.90
